Terminal Aerodrome Forecast
Issued by NWS

Current Version | Previous Version | Text Only | Print | Product List | Glossary On
Versions: 1 2 3 4 5 6 7 8 9 10 11 12 13 14
000
FTUS46 KSGX 022320
TAFPSP
TAF
KPSP 022320Z 0300/0324 33009KT P6SM VCSH FEW060 SCT090
     FM030300 VRB05KT P6SM SCT090
     FM032300 33010KT P6SM SCT250=

USA.gov is the U.S. government's official web portal to all federal, state and local government web resources and services.